Time;durP1;ratioP1;P1;durP2;ratioP2;P2;SDS_P1;SDS_P2;PMS_P1;PMS_P2;Temp;Humidity;BMP_temperature;BMP_pressure;BME280_temperature;BME280_humidity;BME280_pressure;Samples;Min_cycle;Max_cycle;Signal;HPM_P1;HPM_P2
2022/11/15 00:00:33;;;;;;;33.72;14.35;;;7.40;99.90;;;;;;5116738;27;20479;-82
2022/11/15 00:02:59;;;;;;;36.30;14.93;;;7.40;99.90;;;;;;5116575;27;20043;-83
2022/11/15 00:05:25;;;;;;;39.00;15.15;;;7.40;99.90;;;;;;5135247;27;20047;-79
2022/11/15 00:07:51;;;;;;;33.38;14.98;;;7.50;99.90;;;;;;5116756;27;20051;-82
2022/11/15 00:10:17;;;;;;;35.60;16.13;;;7.60;99.90;;;;;;5136133;27;20043;-81
2022/11/15 00:12:42;;;;;;;34.72;14.95;;;7.60;99.90;;;;;;5100848;27;20114;-79
2022/11/15 00:15:08;;;;;;;35.63;15.38;;;7.60;99.90;;;;;;5117846;27;20047;-81
2022/11/15 00:17:34;;;;;;;33.13;14.63;;;7.60;99.90;;;;;;5136845;27;20035;-80
2022/11/15 00:20:00;;;;;;;32.35;15.23;;;7.60;99.90;;;;;;5118457;27;20043;-82
2022/11/15 00:22:32;;;;;;;34.45;15.63;;;7.60;99.90;;;;;;5138824;27;20092;-79
2022/11/15 00:24:57;;;;;;;35.47;15.57;;;7.60;99.90;;;;;;5137087;27;20126;-83
2022/11/15 00:27:23;;;;;;;32.10;14.02;;;7.60;99.90;;;;;;5101670;27;20142;-81
2022/11/15 00:29:49;;;;;;;37.03;14.95;;;7.60;99.90;;;;;;5117641;27;20043;-81
2022/11/15 00:32:14;;;;;;;35.90;13.80;;;7.60;99.90;;;;;;5099675;27;20055;-80
2022/11/15 00:34:40;;;;;;;38.85;16.08;;;7.60;99.90;;;;;;5100209;27;20479;-78
2022/11/15 00:37:06;;;;;;;34.40;14.45;;;7.70;99.90;;;;;;5134887;27;20058;-80
2022/11/15 00:39:32;;;;;;;37.60;15.37;;;7.60;99.90;;;;;;5134949;27;20044;-78
2022/11/15 00:41:58;;;;;;;41.85;16.88;;;7.60;99.90;;;;;;5135993;27;20126;-79
2022/11/15 00:44:23;;;;;;;39.42;16.15;;;7.60;99.90;;;;;;5137159;27;20126;-79
2022/11/15 00:46:49;;;;;;;40.47;15.30;;;7.60;99.90;;;;;;5118352;27;20100;-78
2022/11/15 00:49:15;;;;;;;36.33;14.55;;;7.60;99.90;;;;;;5136130;27;20054;-79
2022/11/15 00:51:40;;;;;;;35.40;15.07;;;7.60;99.90;;;;;;5100104;27;20051;-79
2022/11/15 00:54:08;;;;;;;39.47;15.77;;;7.60;99.90;;;;;;5100115;28;20062;-78
2022/11/15 00:56:34;;;;;;;38.05;14.43;;;7.60;99.90;;;;;;5115739;27;20043;-77
2022/11/15 00:59:00;;;;;;;39.05;15.45;;;7.60;99.90;;;;;;5133987;27;20043;-78
2022/11/15 01:01:26;;;;;;;36.58;14.27;;;7.60;99.90;;;;;;5115564;28;20479;-77
2022/11/15 01:03:51;;;;;;;40.33;15.43;;;7.60;99.90;;;;;;5115144;27;20043;-81
2022/11/15 01:06:17;;;;;;;41.50;15.93;;;7.60;99.90;;;;;;5115702;28;20043;-80
2022/11/15 01:08:43;;;;;;;42.40;15.55;;;7.60;99.90;;;;;;5115090;28;20135;-78
2022/11/15 01:11:11;;;;;;;41.13;16.10;;;7.60;99.90;;;;;;5098430;28;20108;-81
2022/11/15 01:13:38;;;;;;;39.80;15.23;;;7.60;99.90;;;;;;5134340;28;20127;-82
2022/11/15 01:16:18;;;;;;;43.28;15.82;;;7.60;99.90;;;;;;5098538;28;20054;-80
2022/11/15 01:18:44;;;;;;;37.45;14.30;;;7.60;99.90;;;;;;5117020;28;20126;-81
2022/11/15 01:21:15;;;;;;;33.22;15.02;;;7.60;99.90;;;;;;5121892;27;20078;-82
2022/11/15 01:23:41;;;;;;;38.88;14.75;;;7.60;99.90;;;;;;5099990;28;20405;-78
2022/11/15 01:26:10;;;;;;;35.72;15.35;;;7.70;99.90;;;;;;5098325;28;20047;-76
2022/11/15 01:28:37;;;;;;;34.30;14.18;;;7.70;99.90;;;;;;5133607;28;20225;-85
2022/11/15 01:31:06;;;;;;;40.70;15.30;;;7.70;99.90;;;;;;5115195;28;20039;-77
2022/11/15 01:33:35;;;;;;;36.88;14.73;;;7.70;99.90;;;;;;5133394;28;20452;-78
2022/11/15 01:36:05;;;;;;;35.67;14.13;;;7.80;99.90;;;;;;5114949;28;20122;-78
2022/11/15 01:38:30;;;;;;;34.60;14.55;;;7.70;99.90;;;;;;5116200;28;20039;-79
2022/11/15 01:40:56;;;;;;;33.10;14.65;;;7.70;99.90;;;;;;5116992;27;20380;-79
2022/11/15 01:43:31;;;;;;;38.28;14.60;;;7.70;99.90;;;;;;5102463;27;20050;-80
2022/11/15 01:46:23;;;;;;;36.53;15.15;;;7.70;99.90;;;;;;5137379;27;20447;-80
2022/11/15 01:48:52;;;;;;;34.40;14.57;;;7.70;99.90;;;;;;5138003;27;20372;-81
2022/11/15 01:51:21;;;;;;;40.38;14.60;;;7.70;99.90;;;;;;5103009;27;20134;-75
2022/11/15 01:53:52;;;;;;;43.50;14.40;;;7.70;99.90;;;;;;5137460;27;20051;-79
2022/11/15 01:56:22;;;;;;;38.17;15.15;;;7.70;99.90;;;;;;5119094;27;20073;-76
2022/11/15 01:58:51;;;;;;;38.97;14.38;;;7.70;99.90;;;;;;5119082;27;20047;-76
2022/11/15 02:01:17;;;;;;;36.03;14.32;;;7.70;99.90;;;;;;5119226;27;20471;-77
2022/11/15 02:03:56;;;;;;;38.58;14.13;;;7.80;99.90;;;;;;5118779;27;20039;-78
2022/11/15 02:06:22;;;;;;;40.35;15.50;;;7.80;99.90;;;;;;5137630;27;20051;-79
2022/11/15 02:08:49;;;;;;;41.83;15.27;;;7.80;99.90;;;;;;5119614;27;20046;-79
2022/11/15 02:11:15;;;;;;;42.00;14.75;;;7.80;99.90;;;;;;5137728;27;20186;-79
2022/11/15 02:13:41;;;;;;;49.42;15.32;;;7.80;99.90;;;;;;5119014;27;20598;-87
2022/11/15 02:16:29;;;;;;;46.67;15.77;;;7.80;99.90;;;;;;5118597;27;20050;-79
2022/11/15 02:19:09;;;;;;;44.17;15.80;;;7.80;99.90;;;;;;5136770;27;20070;-76
2022/11/15 02:21:49;;;;;;;49.33;16.38;;;7.80;99.90;;;;;;5117922;27;20504;-78
2022/11/15 02:24:32;;;;;;;47.70;15.77;;;7.90;99.90;;;;;;5136822;27;20580;-78
2022/11/15 02:27:13;;;;;;;45.65;16.80;;;7.90;99.90;;;;;;5101734;27;20123;-79
2022/11/15 02:30:12;;;;;;;49.22;16.65;;;7.90;99.90;;;;;;5136951;27;20105;-80
2022/11/15 02:32:45;;;;;;;52.05;17.40;;;7.90;99.90;;;;;;5136654;27;20047;-78
2022/11/15 02:35:27;;;;;;;49.70;17.75;;;7.90;99.90;;;;;;5136666;27;20047;-80
2022/11/15 02:37:58;;;;;;;47.38;16.40;;;7.90;99.90;;;;;;5136973;27;20499;-78
2022/11/15 02:40:34;;;;;;;52.80;17.45;;;7.90;99.90;;;;;;5118833;27;20038;-76
2022/11/15 02:45:59;;;;;;;48.42;18.35;;;8.00;99.90;;;;;;5136486;27;20047;-76
2022/11/15 02:48:26;;;;;;;50.00;17.23;;;8.00;99.90;;;;;;5136433;27;20104;-76
2022/11/15 02:50:52;;;;;;;50.58;16.98;;;8.00;99.90;;;;;;5101460;27;20047;-77
2022/11/15 02:53:23;;;;;;;50.40;16.97;;;8.00;99.90;;;;;;5116885;27;20483;-78
2022/11/15 02:55:50;;;;;;;52.85;18.40;;;8.00;99.90;;;;;;5119007;27;20058;-77
2022/11/15 02:58:22;;;;;;;57.17;18.02;;;8.00;99.90;;;;;;5136052;27;20123;-78
2022/11/15 03:01:03;;;;;;;56.05;19.48;;;8.10;99.90;;;;;;5135954;27;20043;-78
2022/11/15 03:03:58;;;;;;;55.28;18.65;;;8.00;99.90;;;;;;5117734;27;20082;-77
2022/11/15 03:06:48;;;;;;;52.80;19.30;;;8.10;99.90;;;;;;5136331;27;20072;-77
2022/11/15 03:09:29;;;;;;;54.08;18.98;;;8.10;99.90;;;;;;5136519;27;20387;-77
2022/11/15 03:12:43;;;;;;;61.03;19.27;;;8.10;99.90;;;;;;5135870;27;20047;-76
2022/11/15 03:15:24;;;;;;;58.80;18.48;;;8.10;99.90;;;;;;5130917;27;20043;-76
2022/11/15 03:18:06;;;;;;;52.75;18.33;;;8.10;99.90;;;;;;5118468;27;20125;-77
2022/11/15 03:20:34;;;;;;;60.75;20.02;;;8.10;99.90;;;;;;5136931;27;20087;-79
2022/11/15 03:23:10;;;;;;;56.97;20.30;;;8.10;99.90;;;;;;5117543;27;20055;-78
2022/11/15 03:25:41;;;;;;;58.53;19.52;;;8.20;99.90;;;;;;5117161;27;20055;-77
2022/11/15 03:28:11;;;;;;;53.25;18.52;;;8.20;99.90;;;;;;5118097;27;20062;-77
2022/11/15 03:30:39;;;;;;;54.08;19.73;;;8.20;99.90;;;;;;5117298;27;20085;-76
2022/11/15 03:33:08;;;;;;;60.65;20.08;;;8.20;99.90;;;;;;5136192;27;20437;-76
2022/11/15 03:35:40;;;;;;;55.55;19.25;;;8.20;99.90;;;;;;5135982;27;20051;-76
2022/11/15 03:38:19;;;;;;;62.15;20.08;;;8.30;99.90;;;;;;5117783;27;20047;-78
2022/11/15 03:41:03;;;;;;;62.22;20.25;;;8.30;99.90;;;;;;5116885;27;20039;-77
2022/11/15 03:43:38;;;;;;;59.67;20.10;;;8.30;99.90;;;;;;5135707;27;20047;-79
2022/11/15 03:46:16;;;;;;;63.67;21.45;;;8.30;99.90;;;;;;5135057;27;20088;-77
2022/11/15 03:48:50;;;;;;;63.13;20.08;;;8.30;99.90;;;;;;5135138;27;20097;-77
2022/11/15 03:51:16;;;;;;;65.30;20.80;;;8.30;99.90;;;;;;5117151;27;20047;-75
2022/11/15 03:53:42;;;;;;;57.88;20.90;;;8.40;99.90;;;;;;5117170;27;20047;-76
2022/11/15 03:56:08;;;;;;;57.40;21.17;;;8.40;99.90;;;;;;5134713;27;20096;-76
2022/11/15 03:58:34;;;;;;;59.72;20.60;;;8.40;99.90;;;;;;5135005;27;20078;-76
2022/11/15 04:00:59;;;;;;;62.72;21.63;;;8.50;99.90;;;;;;5135526;27;20051;-77
2022/11/15 04:03:25;;;;;;;64.28;23.13;;;8.50;99.90;;;;;;5116872;27;20050;-78
2022/11/15 04:05:51;;;;;;;76.93;21.38;;;8.50;99.90;;;;;;5099199;27;20039;-83
2022/11/15 04:08:17;;;;;;;64.78;21.10;;;8.50;99.90;;;;;;5116136;27;20142;-78
2022/11/15 04:10:43;;;;;;;62.35;22.08;;;8.60;99.90;;;;;;5082998;27;20053;-75
2022/11/15 04:13:08;;;;;;;70.78;23.17;;;8.60;99.90;;;;;;5116143;27;20045;-78
2022/11/15 04:15:34;;;;;;;71.38;22.48;;;8.60;99.90;;;;;;5116663;27;20043;-78
2022/11/15 04:18:00;;;;;;;63.58;21.77;;;8.70;99.90;;;;;;5100166;27;20104;-78
2022/11/15 04:26:20;;;;;;;59.95;22.33;;;8.80;99.90;;;;;;5135030;27;20046;-76
2022/11/15 04:31:31;;;;;;;64.38;22.45;;;8.90;99.90;;;;;;5134502;27;20045;-76
2022/11/15 04:33:56;;;;;;;70.55;23.08;;;8.90;99.90;;;;;;5116299;27;20119;-84
2022/11/15 04:39:07;;;;;;;59.38;22.00;;;9.00;99.90;;;;;;5116054;27;20126;-79
2022/11/15 04:41:32;;;;;;;64.57;22.95;;;9.00;99.90;;;;;;5134311;27;20090;-77
2022/11/15 04:43:58;;;;;;;72.50;24.70;;;9.10;99.90;;;;;;5115860;27;20150;-81
2022/11/15 04:46:24;;;;;;;65.95;23.00;;;9.10;99.90;;;;;;5116153;27;20141;-78
2022/11/15 04:48:51;;;;;;;69.47;24.37;;;9.10;99.90;;;;;;5116094;27;20051;-78
2022/11/15 04:51:17;;;;;;;59.70;22.90;;;9.20;99.90;;;;;;5116399;28;20288;-79
2022/11/15 04:53:42;;;;;;;69.70;24.17;;;9.20;99.90;;;;;;5099702;27;20043;-80
2022/11/15 04:56:08;;;;;;;69.97;24.27;;;9.20;99.90;;;;;;5117403;27;20139;-81
2022/11/15 04:58:34;;;;;;;64.07;22.88;;;9.30;99.90;;;;;;5118530;27;20034;-78
2022/11/15 05:01:20;;;;;;;61.13;22.10;;;9.30;99.90;;;;;;5118269;27;20047;-82
2022/11/15 05:06:30;;;;;;;53.53;21.10;;;9.30;99.90;;;;;;5135759;27;20392;-78
2022/11/15 05:09:03;;;;;;;53.85;21.80;;;9.30;99.90;;;;;;5118016;28;20047;-77
2022/11/15 05:11:28;;;;;;;51.13;21.27;;;9.40;99.90;;;;;;5101599;28;20035;-77
2022/11/15 05:13:54;;;;;;;50.15;21.13;;;9.40;99.90;;;;;;5136290;28;20081;-77
2022/11/15 05:16:20;;;;;;;51.40;21.00;;;9.40;99.90;;;;;;5134138;27;20140;-76
2022/11/15 05:18:46;;;;;;;57.75;21.17;;;9.50;99.90;;;;;;5116886;28;20043;-81
2022/11/15 05:21:14;;;;;;;50.30;20.60;;;9.50;99.90;;;;;;5136835;28;20132;-76
2022/11/15 05:23:41;;;;;;;52.95;21.45;;;9.50;99.90;;;;;;5124015;28;20059;-76
2022/11/15 05:26:10;;;;;;;55.88;21.30;;;9.50;99.90;;;;;;5110499;28;20429;-80
2022/11/15 05:28:36;;;;;;;52.03;20.48;;;9.60;99.90;;;;;;5126591;28;20051;-74
2022/11/15 05:31:08;;;;;;;50.93;20.17;;;9.60;99.90;;;;;;5122741;28;20452;-86
2022/11/15 05:33:35;;;;;;;52.90;19.88;;;9.60;99.90;;;;;;5139339;28;20365;-79
2022/11/15 05:36:17;;;;;;;55.38;19.23;;;9.70;99.90;;;;;;5104698;28;20183;-77
2022/11/15 05:38:44;;;;;;;44.72;18.20;;;9.70;99.90;;;;;;5116312;28;20050;-77
2022/11/15 05:41:10;;;;;;;41.70;18.85;;;9.70;99.90;;;;;;5117054;28;20436;-78
2022/11/15 05:43:38;;;;;;;54.10;20.23;;;9.80;99.90;;;;;;5134985;28;20383;-79
2022/11/15 05:46:05;;;;;;;48.10;19.08;;;9.80;99.90;;;;;;5116220;28;20054;-81
2022/11/15 05:48:32;;;;;;;54.00;20.85;;;9.80;99.90;;;;;;5134020;28;20130;-77
2022/11/15 05:50:58;;;;;;;;;;;9.90;99.90;;;;;;5133956;28;20044;-76
2022/11/15 05:53:25;;;;;;;49.20;19.67;;;9.90;99.90;;;;;;5115179;28;20015;-76
2022/11/15 05:55:51;;;;;;;47.05;19.73;;;9.90;99.90;;;;;;5133613;28;20039;-77
2022/11/15 05:58:18;;;;;;;49.50;19.90;;;10.00;99.90;;;;;;5115158;28;20047;-77
2022/11/15 06:00:44;;;;;;;;;;;10.00;99.90;;;;;;5133552;28;20047;-77
2022/11/15 06:03:10;;;;;;;48.77;19.73;;;10.00;99.90;;;;;;5115484;28;19923;-78
2022/11/15 06:05:36;;;;;;;55.25;21.83;;;10.00;99.90;;;;;;5133254;28;20402;-76
2022/11/15 06:08:02;;;;;;;50.55;19.65;;;10.10;99.90;;;;;;5133107;28;20066;-77
2022/11/15 06:10:27;;;;;;;54.80;20.30;;;10.10;99.90;;;;;;5115973;28;20117;-77
2022/11/15 06:12:58;;;;;;;51.08;21.40;;;10.20;99.90;;;;;;5115248;28;20379;-78
2022/11/15 06:15:23;;;;;;;49.65;19.70;;;10.20;99.90;;;;;;5098149;28;20047;-78
2022/11/15 06:17:49;;;;;;;49.65;18.98;;;10.10;99.90;;;;;;5115093;28;20110;-78
2022/11/15 06:20:15;;;;;;;48.83;19.33;;;10.20;99.90;;;;;;5114937;28;20074;-77
2022/11/15 06:22:41;;;;;;;52.15;20.08;;;10.20;99.90;;;;;;5133004;28;20051;-78
2022/11/15 06:25:07;;;;;;;50.88;20.05;;;10.20;99.90;;;;;;5115780;28;20543;-78
2022/11/15 06:27:32;;;;;;;50.83;20.67;;;10.20;99.90;;;;;;5082625;27;20047;-79
2022/11/15 06:29:58;;;;;;;45.20;17.98;;;10.20;99.90;;;;;;5136856;27;20051;-78
2022/11/15 06:32:24;;;;;;;50.08;19.15;;;10.20;99.90;;;;;;5102009;27;20039;-79
2022/11/15 06:34:49;;;;;;;41.75;18.50;;;10.20;99.90;;;;;;5118725;27;20111;-79
2022/11/15 06:37:15;;;;;;;41.97;18.50;;;10.30;99.90;;;;;;5101971;27;20140;-78
2022/11/15 06:39:41;;;;;;;45.90;19.42;;;10.30;99.90;;;;;;5137482;27;20091;-78
2022/11/15 06:42:08;;;;;;;47.20;19.08;;;10.30;99.90;;;;;;5118847;27;20522;-82
2022/11/15 06:44:34;;;;;;;37.80;17.67;;;10.30;99.90;;;;;;5136810;27;20486;-77
2022/11/15 06:47:00;;;;;;;44.30;18.65;;;10.40;99.90;;;;;;5085298;27;20103;-77
2022/11/15 06:49:26;;;;;;;41.97;18.73;;;10.40;99.90;;;;;;5118774;27;20041;-77
2022/11/15 06:51:51;;;;;;;43.38;16.83;;;10.40;99.90;;;;;;5139185;27;20126;-78
2022/11/15 06:54:17;;;;;;;37.38;16.92;;;10.40;99.90;;;;;;5139959;27;20479;-77
2022/11/15 06:56:43;;;;;;;42.22;17.58;;;10.40;99.90;;;;;;5106789;27;20047;-77
2022/11/15 06:59:09;;;;;;;41.78;17.65;;;10.40;99.90;;;;;;5142136;27;20049;-79
2022/11/15 07:01:34;;;;;;;39.80;16.63;;;10.40;99.90;;;;;;5122953;27;20039;-78
2022/11/15 07:04:00;;;;;;;40.78;17.92;;;10.40;99.90;;;;;;5142006;27;20115;-78
2022/11/15 07:06:26;;;;;;;37.72;16.52;;;10.50;99.90;;;;;;5103409;27;20118;-77
2022/11/15 07:08:52;;;;;;;38.30;16.88;;;10.40;99.90;;;;;;5138370;27;20035;-78
2022/11/15 07:11:17;;;;;;;44.92;17.42;;;10.50;99.90;;;;;;5122052;27;20092;-81
2022/11/15 07:13:43;;;;;;;41.85;18.00;;;10.50;99.90;;;;;;5105351;27;20042;-77
2022/11/15 07:16:10;;;;;;;32.15;15.65;;;10.50;99.90;;;;;;5140443;27;20076;-77
2022/11/15 07:18:39;;;;;;;36.38;17.33;;;10.50;99.90;;;;;;5141124;27;20051;-77
2022/11/15 07:21:10;;;;;;;40.88;17.52;;;10.50;99.90;;;;;;5141143;27;20047;-79
2022/11/15 07:23:40;;;;;;;36.17;16.67;;;10.50;99.90;;;;;;5142446;27;20058;-78
2022/11/15 07:26:06;;;;;;;38.70;16.98;;;10.50;99.90;;;;;;5143843;27;20054;-76
2022/11/15 07:28:33;;;;;;;36.75;16.02;;;10.50;99.90;;;;;;5122669;27;20151;-76
2022/11/15 07:31:05;;;;;;;37.78;16.02;;;10.50;99.90;;;;;;5104046;27;20039;-76
2022/11/15 07:33:31;;;;;;;32.63;16.17;;;10.60;99.90;;;;;;5121723;27;20107;-77
2022/11/15 07:36:01;;;;;;;36.95;16.52;;;10.60;99.90;;;;;;5138343;27;20046;-76
2022/11/15 07:38:28;;;;;;;37.97;17.23;;;10.60;99.90;;;;;;5102765;27;20452;-77
2022/11/15 07:40:59;;;;;;;35.28;16.73;;;10.60;99.90;;;;;;5120669;27;20047;-77
2022/11/15 07:43:27;;;;;;;37.22;16.35;;;10.60;99.90;;;;;;5136993;27;20039;-78
2022/11/15 07:45:53;;;;;;;39.28;16.90;;;10.60;99.90;;;;;;5136489;27;20043;-79
2022/11/15 07:48:19;;;;;;;41.00;17.20;;;10.70;99.90;;;;;;5136414;27;20043;-78
2022/11/15 07:50:45;;;;;;;35.88;17.23;;;10.70;99.90;;;;;;5136514;27;20043;-78
2022/11/15 07:53:11;;;;;;;35.58;16.40;;;10.70;99.90;;;;;;5118091;27;20035;-78
2022/11/15 07:55:37;;;;;;;39.10;17.15;;;10.80;99.90;;;;;;5083992;27;20150;-77
2022/11/15 07:58:08;;;;;;;38.60;17.50;;;10.80;99.90;;;;;;5117898;27;20135;-77
2022/11/15 08:00:34;;;;;;;37.65;17.23;;;10.80;99.90;;;;;;5083807;27;20084;-76
2022/11/15 08:03:10;;;;;;;37.97;15.93;;;10.80;99.90;;;;;;5117366;27;20076;-77
2022/11/15 08:05:38;;;;;;;35.55;16.10;;;10.80;99.90;;;;;;5135471;27;20051;-77
2022/11/15 08:08:04;;;;;;;38.22;17.05;;;10.80;99.90;;;;;;5117639;27;20126;-76
2022/11/15 08:10:30;;;;;;;36.90;16.73;;;10.80;99.90;;;;;;5135516;27;20074;-76
2022/11/15 08:13:06;;;;;;;34.63;16.55;;;10.90;99.90;;;;;;5117906;27;20099;-77
2022/11/15 08:15:33;;;;;;;35.72;16.63;;;10.90;99.90;;;;;;5117150;27;20103;-78
2022/11/15 08:18:02;;;;;;;34.25;16.67;;;10.90;99.90;;;;;;5135554;27;20039;-77
2022/11/15 08:20:29;;;;;;;31.55;15.88;;;11.00;99.90;;;;;;5117301;27;20039;-78
2022/11/15 08:23:00;;;;;;;36.60;16.63;;;11.00;99.90;;;;;;5096144;28;20095;-76
2022/11/15 08:25:27;;;;;;;34.20;15.75;;;11.00;99.90;;;;;;5112952;28;20047;-77
2022/11/15 08:27:54;;;;;;;35.53;15.85;;;11.10;99.90;;;;;;5096331;28;20051;-77
2022/11/15 08:30:20;;;;;;;;;;;11.10;99.90;;;;;;5113430;28;20112;-79
2022/11/15 08:32:47;;;;;;;36.88;15.90;;;11.10;99.90;;;;;;5113210;28;20339;-78
2022/11/15 08:35:13;;;;;;;37.42;16.60;;;11.20;99.90;;;;;;5113842;28;20038;-80
2022/11/15 08:37:39;;;;;;;42.10;16.92;;;11.20;99.90;;;;;;5112897;28;20118;-79
2022/11/15 08:40:05;;;;;;;38.65;17.50;;;11.20;99.90;;;;;;5113622;28;20035;-78
2022/11/15 08:42:31;;;;;;;34.25;17.25;;;11.30;99.90;;;;;;5114737;28;20039;-79
2022/11/15 08:44:57;;;;;;;39.67;17.30;;;11.40;99.90;;;;;;5113915;28;20474;-76
2022/11/15 08:47:23;;;;;;;36.17;16.77;;;11.30;99.90;;;;;;5112907;28;20039;-88
2022/11/15 08:49:49;;;;;;;35.75;17.13;;;11.40;99.90;;;;;;5112549;28;20601;-77
2022/11/15 08:52:15;;;;;;;38.85;16.30;;;11.40;99.90;;;;;;5113923;28;20141;-75
2022/11/15 08:54:41;;;;;;;36.90;16.48;;;11.40;99.90;;;;;;5114131;28;20054;-74
2022/11/15 08:57:09;;;;;;;35.70;16.58;;;11.40;99.90;;;;;;5112539;28;20046;-79
2022/11/15 08:59:36;;;;;;;36.15;16.52;;;11.50;99.90;;;;;;5114084;28;20036;-78
2022/11/15 09:02:03;;;;;;;37.40;18.05;;;11.50;99.90;;;;;;5113513;28;20044;-78
2022/11/15 09:04:29;;;;;;;33.13;16.30;;;11.60;99.90;;;;;;5096106;28;20375;-78
2022/11/15 09:06:55;;;;;;;37.97;16.70;;;11.70;99.90;;;;;;5113049;28;20736;-78
2022/11/15 09:09:21;;;;;;;35.65;16.42;;;11.70;99.90;;;;;;5113772;28;20039;-77
2022/11/15 09:11:46;;;;;;;33.95;16.02;;;11.70;99.90;;;;;;5112760;28;20039;-78
2022/11/15 09:14:13;;;;;;;32.97;16.98;;;11.70;99.90;;;;;;5096254;28;20035;-80
2022/11/15 09:16:39;;;;;;;30.77;15.40;;;11.70;99.90;;;;;;5096816;28;20048;-77
2022/11/15 09:19:05;;;;;;;30.98;14.95;;;11.60;99.90;;;;;;5112568;28;20205;-77
2022/11/15 09:21:30;;;;;;;32.10;14.70;;;11.60;99.90;;;;;;5113981;28;20066;-76
2022/11/15 09:23:57;;;;;;;30.98;14.27;;;11.70;99.90;;;;;;5134553;28;20047;-79
2022/11/15 09:26:22;;;;;;;35.47;14.63;;;11.70;99.90;;;;;;5099439;28;20515;-77
2022/11/15 09:28:48;;;;;;;30.20;14.45;;;11.70;99.90;;;;;;5134518;28;20118;-79
2022/11/15 09:31:14;;;;;;;30.33;14.10;;;11.70;99.90;;;;;;5116018;28;20467;-78
2022/11/15 09:33:42;;;;;;;26.00;14.10;;;11.80;99.90;;;;;;5134457;28;20085;-78
2022/11/15 09:36:09;;;;;;;25.02;13.32;;;11.70;99.90;;;;;;5115833;28;20459;-81
2022/11/15 09:38:35;;;;;;;26.95;13.68;;;11.80;99.90;;;;;;5134659;28;20051;-77
2022/11/15 09:41:17;;;;;;;28.13;13.20;;;11.80;99.90;;;;;;5133826;28;20108;-78
2022/11/15 09:44:05;;;;;;;25.65;13.52;;;11.80;99.90;;;;;;5115892;28;20054;-76
2022/11/15 09:46:42;;;;;;;26.90;13.20;;;11.80;99.90;;;;;;5134849;28;20111;-76
2022/11/15 09:49:10;;;;;;;24.77;12.35;;;11.80;99.90;;;;;;5098763;28;20048;-77
2022/11/15 09:51:47;;;;;;;25.17;12.52;;;11.80;99.90;;;;;;5116881;28;20047;-78
2022/11/15 09:54:29;;;;;;;23.63;11.93;;;11.80;99.90;;;;;;5099555;28;20038;-77
2022/11/15 09:57:08;;;;;;;22.45;12.40;;;11.80;99.90;;;;;;5116633;28;20047;-79
2022/11/15 09:59:50;;;;;;;22.75;11.20;;;11.90;99.90;;;;;;5134057;28;20050;-77
2022/11/15 10:02:34;;;;;;;21.35;11.82;;;11.90;99.90;;;;;;5118249;27;20466;-75
2022/11/15 10:05:01;;;;;;;19.60;10.95;;;11.90;99.90;;;;;;5137540;27;20489;-76
2022/11/15 10:07:44;;;;;;;;;;;11.90;99.90;;;;;;5119793;27;20043;-76
2022/11/15 10:10:29;;;;;;;21.63;11.00;;;12.00;99.90;;;;;;5118852;27;19915;-77
2022/11/15 10:12:55;;;;;;;18.65;9.88;;;12.00;99.90;;;;;;5137277;27;20035;-80
2022/11/15 10:15:22;;;;;;;24.63;11.00;;;12.10;99.90;;;;;;5118866;27;20077;-81
2022/11/15 10:18:06;;;;;;;19.00;9.95;;;12.10;99.90;;;;;;5137751;27;20105;-77
2022/11/15 10:20:43;;;;;;;17.67;9.38;;;12.00;99.90;;;;;;5118492;27;20031;-83
2022/11/15 10:23:13;;;;;;;17.75;9.40;;;12.00;99.90;;;;;;5137028;27;20062;-75
2022/11/15 10:25:39;;;;;;;19.65;10.15;;;12.10;99.90;;;;;;5118914;27;20054;-79
2022/11/15 10:28:27;;;;;;;20.13;9.95;;;12.20;99.90;;;;;;5137080;27;20043;-77
2022/11/15 10:30:58;;;;;;;18.73;8.77;;;12.30;99.90;;;;;;5137936;27;20050;-80
2022/11/15 10:33:36;;;;;;;17.75;9.48;;;12.40;99.90;;;;;;5119378;27;20103;-78
2022/11/15 10:36:18;;;;;;;16.15;7.38;;;12.50;99.90;;;;;;5119537;27;20046;-76
2022/11/15 10:38:49;;;;;;;13.40;6.80;;;12.60;99.90;;;;;;5118199;27;20100;-80
2022/11/15 10:41:38;;;;;;;15.75;6.50;;;12.70;99.90;;;;;;5119193;27;20047;-76
2022/11/15 10:44:06;;;;;;;13.75;5.72;;;12.80;99.90;;;;;;5101878;27;20078;-74
2022/11/15 10:46:34;;;;;;;10.05;5.07;;;12.80;99.90;;;;;;5137899;27;20092;-77
2022/11/15 10:49:18;;;;;;;10.82;4.60;;;12.60;99.90;;;;;;5138228;27;20121;-77
2022/11/15 10:51:52;;;;;;;11.00;4.43;;;12.60;99.90;;;;;;5101836;27;20517;-77
2022/11/15 10:54:27;;;;;;;10.93;4.15;;;12.60;99.90;;;;;;5120190;27;20074;-76
2022/11/15 10:56:57;;;;;;;8.15;3.67;;;12.50;99.90;;;;;;5120021;27;20047;-77
2022/11/15 10:59:34;;;;;;;9.80;4.13;;;12.50;99.90;;;;;;5150728;27;20031;-76
2022/11/15 11:02:00;;;;;;;8.30;3.67;;;12.40;99.90;;;;;;5150971;27;20043;-75
2022/11/15 11:04:26;;;;;;;6.78;3.58;;;12.30;99.90;;;;;;5151962;27;20090;-80
2022/11/15 11:06:55;;;;;;;7.65;3.80;;;12.30;99.90;;;;;;5151270;27;20050;-80
2022/11/15 11:09:38;;;;;;;9.02;3.55;;;12.30;99.90;;;;;;5136868;27;20055;-80
2022/11/15 11:12:09;;;;;;;10.77;4.15;;;12.30;99.90;;;;;;5134584;27;20047;-77
2022/11/15 11:14:37;;;;;;;10.45;4.32;;;12.30;99.90;;;;;;5129055;27;20149;-77
2022/11/15 11:17:12;;;;;;;10.48;3.95;;;12.30;99.90;;;;;;5115113;27;20054;-77
2022/11/15 11:20:08;;;;;;;7.28;3.60;;;12.40;99.90;;;;;;5148689;27;20130;-83
2022/11/15 11:22:49;;;;;;;10.55;3.97;;;12.30;99.90;;;;;;5145687;27;20059;-77
2022/11/15 11:25:23;;;;;;;8.82;3.50;;;12.30;99.90;;;;;;5138789;27;20058;-74
2022/11/15 11:28:10;;;;;;;7.72;3.70;;;12.30;99.90;;;;;;5137132;27;20050;-76
2022/11/15 11:31:08;;;;;;;9.68;3.40;;;12.40;99.90;;;;;;5136538;27;20050;-80
2022/11/15 11:33:48;;;;;;;9.75;3.60;;;12.30;99.90;;;;;;5062436;27;20054;-78
2022/11/15 11:36:40;;;;;;;11.50;3.58;;;12.40;99.90;;;;;;5100942;27;20069;-80
2022/11/15 11:39:22;;;;;;;8.77;3.75;;;12.40;99.90;;;;;;5089188;27;20144;-77
2022/11/15 11:42:07;;;;;;;8.23;3.67;;;12.40;99.90;;;;;;5135498;27;20058;-77
2022/11/15 11:44:51;;;;;;;9.98;3.30;;;12.40;99.90;;;;;;5135160;27;20145;-77
2022/11/15 11:47:24;;;;;;;8.20;3.85;;;12.50;99.90;;;;;;5135538;27;20055;-75
2022/11/15 11:50:12;;;;;;;13.70;3.88;;;12.50;99.90;;;;;;5118035;27;20074;-80
2022/11/15 11:52:44;;;;;;;8.88;2.95;;;12.60;99.90;;;;;;5135158;27;20546;-77
2022/11/15 11:55:49;;;;;;;9.35;2.95;;;12.70;99.90;;;;;;5136047;27;20099;-76
2022/11/15 11:58:36;;;;;;;10.07;2.88;;;12.70;99.90;;;;;;5116648;27;20122;-76
2022/11/15 12:01:05;;;;;;;7.70;2.88;;;12.80;99.90;;;;;;5116980;27;20092;-77
2022/11/15 12:03:54;;;;;;;8.35;3.05;;;12.90;99.90;;;;;;5117351;27;20089;-78
2022/11/15 12:06:46;;;;;;;11.02;2.78;;;13.00;99.90;;;;;;5103373;27;20134;-77
2022/11/15 12:09:12;;;;;;;7.20;2.75;;;13.10;99.90;;;;;;5135228;27;20039;-76
2022/11/15 12:11:37;;;;;;;7.10;2.47;;;13.10;99.90;;;;;;5135262;27;20051;-76
2022/11/15 12:14:11;;;;;;;6.43;2.38;;;13.10;99.90;;;;;;5117236;27;20046;-78
2022/11/15 12:16:39;;;;;;;11.60;2.80;;;13.10;99.90;;;;;;5118158;27;20120;-75
2022/11/15 12:19:05;;;;;;;6.82;2.42;;;13.10;99.90;;;;;;5099823;27;20050;-78
2022/11/15 12:21:56;;;;;;;7.97;2.83;;;13.20;99.90;;;;;;5116264;27;20061;-79
2022/11/15 12:24:32;;;;;;;9.10;3.22;;;13.20;99.90;;;;;;5099479;27;20402;-80
2022/11/15 12:27:21;;;;;;;9.43;2.35;;;13.30;99.90;;;;;;5134657;27;20054;-81
2022/11/15 12:29:52;;;;;;;4.72;2.30;;;13.40;99.90;;;;;;5116291;27;20047;-79
2022/11/15 12:32:27;;;;;;;6.60;2.15;;;13.40;99.90;;;;;;5135261;27;20047;-77
2022/11/15 12:34:54;;;;;;;7.97;2.25;;;13.50;99.90;;;;;;5116471;27;20040;-78
2022/11/15 12:37:33;;;;;;;;;;;13.40;99.90;;;;;;5100122;27;20049;-78
2022/11/15 12:40:24;;;;;;;7.05;2.30;;;13.30;99.90;;;;;;5117011;27;20293;-77
2022/11/15 12:43:13;;;;;;;6.20;2.05;;;13.40;99.90;;;;;;5135162;27;20043;-80
2022/11/15 12:45:41;;;;;;;7.25;1.83;;;13.40;99.90;;;;;;5117265;27;20134;-75
2022/11/15 12:48:16;;;;;;;7.30;1.70;;;13.60;99.90;;;;;;5116984;27;20104;-76
2022/11/15 12:50:51;;;;;;;6.03;1.70;;;13.30;99.90;;;;;;5116643;27;20051;-75
2022/11/15 12:53:27;;;;;;;5.90;1.52;;;13.30;99.90;;;;;;5135328;27;20055;-78
2022/11/15 12:56:17;;;;;;;4.55;1.70;;;13.20;99.90;;;;;;5116124;28;20081;-77
2022/11/15 12:58:46;;;;;;;4.43;1.52;;;13.10;99.90;;;;;;5099241;27;20133;-77
2022/11/15 13:04:14;;;;;;;6.90;1.85;;;12.90;99.90;;;;;;5133988;27;20130;-77
2022/11/15 13:06:43;;;;;;;4.38;1.45;;;12.80;99.90;;;;;;5134332;27;20121;-77
2022/11/15 13:09:27;;;;;;;6.50;1.38;;;12.80;99.90;;;;;;5133834;27;20096;-78
2022/11/15 13:11:54;;;;;;;6.78;1.15;;;12.70;99.90;;;;;;5134099;27;20043;-77
2022/11/15 13:14:54;;;;;;;3.58;1.65;;;12.90;99.90;;;;;;5116587;28;20133;-81